Time;durP1;ratioP1;P1;durP2;ratioP2;P2;SDS_P1;SDS_P2;PMS_P1;PMS_P2;Temp;Humidity;BMP_temperature;BMP_pressure;BME280_temperature;BME280_humidity;BME280_pressure;Samples;Min_cycle;Max_cycle;Signal;HPM_P1;HPM_P2
2023/04/06 00:01:08;;;;;;;4.10;3.70;;;5.10;55.10;4.70;96593.00;;;;5034332;28;20209;-83
2023/04/06 00:03:35;;;;;;;5.77;3.43;;;5.10;55.20;4.70;96592.00;;;;5027635;28;20241;-84
2023/04/06 00:06:02;;;;;;;4.93;4.13;;;5.10;55.30;4.70;96590.00;;;;5033670;28;20221;-83
2023/04/06 00:08:31;;;;;;;4.80;4.17;;;5.10;55.10;4.70;96587.00;;;;5032966;28;20201;-83
2023/04/06 00:10:59;;;;;;;4.90;3.77;;;5.10;55.10;4.60;96581.00;;;;5029102;28;20193;-84
2023/04/06 00:13:26;;;;;;;4.57;4.17;;;5.10;55.00;4.60;96586.00;;;;5041234;28;20201;-84
2023/04/06 00:15:53;;;;;;;4.33;3.93;;;5.00;55.00;4.60;96589.00;;;;5028107;28;20222;-84
2023/04/06 00:18:20;;;;;;;5.30;4.10;;;5.00;55.00;4.50;96584.00;;;;5037164;28;20205;-84
2023/04/06 00:20:48;;;;;;;4.27;3.87;;;5.00;55.10;4.50;96585.00;;;;5034379;28;20237;-83
2023/04/06 00:23:15;;;;;;;8.83;4.73;;;4.90;55.20;4.50;96590.00;;;;5036850;28;20492;-83
2023/04/06 00:25:44;;;;;;;4.17;3.77;;;4.90;55.40;4.50;96582.00;;;;5043358;28;20522;-83
2023/04/06 00:28:11;;;;;;;4.47;3.90;;;4.90;55.60;4.50;96584.00;;;;5032243;28;20468;-81
2023/04/06 00:30:39;;;;;;;6.63;4.43;;;4.90;55.60;4.40;96586.00;;;;5031577;28;20455;-82
2023/04/06 00:33:06;;;;;;;5.43;4.63;;;4.90;55.60;4.40;96579.00;;;;5044651;28;20202;-81
2023/04/06 00:35:34;;;;;;;4.73;4.00;;;4.90;55.80;4.50;96590.00;;;;5036137;28;20220;-81
2023/04/06 00:38:01;;;;;;;4.93;3.77;;;4.90;56.00;4.40;96579.00;;;;5027760;28;20177;-81
2023/04/06 00:40:29;;;;;;;5.30;4.20;;;4.90;56.00;4.40;96579.00;;;;5039451;28;20198;-81
2023/04/06 00:42:57;;;;;;;5.33;4.30;;;4.90;55.80;4.40;96585.00;;;;5029621;28;20993;-81
2023/04/06 00:45:25;;;;;;;5.77;4.07;;;4.90;55.70;4.40;96584.00;;;;5030799;28;20476;-81
2023/04/06 00:47:52;;;;;;;4.27;3.87;;;4.80;55.70;4.40;96589.00;;;;5029682;28;20443;-81
2023/04/06 00:50:20;;;;;;;5.80;4.10;;;4.80;55.70;4.40;96592.00;;;;5042546;28;20450;-81
2023/04/06 00:52:47;;;;;;;4.80;3.87;;;4.80;55.60;4.30;96583.00;;;;5038855;28;21185;-81
2023/04/06 00:55:15;;;;;;;5.27;4.77;;;4.80;55.50;4.30;96585.00;;;;5038924;28;20240;-81
2023/04/06 00:57:42;;;;;;;4.23;3.83;;;4.70;55.50;4.20;96594.00;;;;5018074;28;20202;-81
2023/04/06 01:00:13;;;;;;;8.07;5.00;;;4.70;55.50;4.20;96586.00;;;;5036519;28;20214;-81
2023/04/06 01:02:41;;;;;;;9.67;5.77;;;4.70;55.70;4.20;96580.00;;;;5037155;28;20445;-81
2023/04/06 01:05:09;;;;;;;8.37;5.50;;;4.60;55.70;4.20;96585.00;;;;5039309;28;20515;-81
2023/04/06 01:07:36;;;;;;;5.87;4.13;;;4.60;55.90;4.10;96576.00;;;;5020848;28;20449;-81
2023/04/06 01:10:04;;;;;;;4.23;3.80;;;4.60;56.00;4.10;96572.00;;;;5035481;28;20491;-81
2023/04/06 01:12:32;;;;;;;4.03;3.50;;;4.60;56.10;4.10;96578.00;;;;5024869;28;20190;-81
2023/04/06 01:15:02;;;;;;;4.87;4.33;;;4.60;56.30;4.10;96582.00;;;;5034328;28;20456;-81
2023/04/06 01:17:30;;;;;;;4.37;3.93;;;4.50;56.30;4.00;96578.00;;;;5029021;28;20868;-81
2023/04/06 01:19:58;;;;;;;3.77;3.47;;;4.50;56.30;4.00;96574.00;;;;5042506;28;20436;-81
2023/04/06 01:22:29;;;;;;;5.67;4.17;;;4.60;56.40;4.00;96573.00;;;;5042366;28;20502;-81
2023/04/06 01:24:59;;;;;;;3.80;3.50;;;4.50;56.40;4.00;96576.00;;;;5041473;28;20537;-81
2023/04/06 01:27:27;;;;;;;3.93;3.63;;;4.50;56.30;4.00;96578.00;;;;5029951;28;20339;-81
2023/04/06 01:29:55;;;;;;;3.90;3.40;;;4.50;56.30;4.00;96576.00;;;;5035085;28;20206;-81
2023/04/06 01:32:23;;;;;;;4.10;3.77;;;4.50;56.20;4.00;96568.00;;;;5043920;28;20454;-81
2023/04/06 01:34:50;;;;;;;4.13;3.73;;;4.50;56.20;4.00;96574.00;;;;5044254;28;20466;-81
2023/04/06 01:37:17;;;;;;;4.13;3.67;;;4.50;56.20;4.00;96564.00;;;;5043574;28;20444;-83
2023/04/06 01:39:46;;;;;;;4.13;3.83;;;4.50;56.20;3.90;96566.00;;;;5021095;28;20910;-82
2023/04/06 01:42:13;;;;;;;3.97;3.67;;;4.40;56.20;3.90;96566.00;;;;5035140;28;20443;-81
2023/04/06 01:44:41;;;;;;;3.83;3.53;;;4.40;56.70;3.90;96561.00;;;;5034928;28;20487;-81
2023/04/06 01:47:08;;;;;;;4.10;3.30;;;4.40;56.40;3.90;96566.00;;;;5038349;28;20484;-81
2023/04/06 01:49:35;;;;;;;4.13;3.83;;;4.40;56.50;3.90;96560.00;;;;5031635;28;20451;-80
2023/04/06 01:52:07;;;;;;;3.73;3.43;;;4.40;56.50;3.90;96560.00;;;;5030055;28;20456;-81
2023/04/06 01:54:34;;;;;;;3.50;3.20;;;4.40;56.50;3.90;96554.00;;;;5020330;28;20441;-81
2023/04/06 01:57:03;;;;;;;3.43;3.13;;;4.30;56.50;3.90;96555.00;;;;5036869;28;20461;-81
2023/04/06 01:59:30;;;;;;;3.43;3.13;;;4.30;56.60;3.80;96556.00;;;;5039882;28;20456;-81
2023/04/06 02:01:58;;;;;;;4.10;3.30;;;4.30;56.80;3.80;96552.00;;;;5032862;28;20467;-82
2023/04/06 02:04:25;;;;;;;3.73;3.43;;;4.30;56.90;3.80;96547.00;;;;5027070;28;20484;-81
2023/04/06 02:06:53;;;;;;;3.87;3.47;;;4.30;56.90;3.80;96553.00;;;;5035079;28;20459;-81
2023/04/06 02:09:20;;;;;;;3.73;3.37;;;4.30;56.80;3.80;96558.00;;;;5043221;28;20428;-82
2023/04/06 02:11:47;;;;;;;3.77;3.47;;;4.30;56.90;3.80;96555.00;;;;5034828;28;20463;-81
2023/04/06 02:14:18;;;;;;;3.77;3.40;;;4.20;57.00;3.70;96548.00;;;;5039692;28;20448;-81
2023/04/06 02:16:46;;;;;;;3.77;3.23;;;4.20;57.10;3.70;96547.00;;;;5027726;28;20584;-81
2023/04/06 02:19:14;;;;;;;3.63;3.17;;;4.20;57.30;3.70;96550.00;;;;5028533;28;20992;-81
2023/04/06 02:21:41;;;;;;;3.40;3.10;;;4.20;57.40;3.70;96551.00;;;;5031536;28;20487;-82
2023/04/06 02:24:09;;;;;;;4.00;3.60;;;4.20;57.50;3.70;96553.00;;;;5039892;28;20537;-81
2023/04/06 02:26:36;;;;;;;3.63;3.10;;;4.20;57.50;3.70;96549.00;;;;5035042;28;20464;-82
2023/04/06 02:29:05;;;;;;;4.87;3.17;;;4.20;57.40;3.70;96548.00;;;;5021156;28;20463;-82
2023/04/06 02:31:34;;;;;;;3.97;3.67;;;4.20;57.40;3.70;96549.00;;;;5031918;28;20449;-82
2023/04/06 02:34:04;;;;;;;4.23;3.87;;;4.20;57.40;3.70;96541.00;;;;5027364;28;20452;-82
2023/04/06 02:36:33;;;;;;;3.60;3.30;;;4.20;57.80;3.70;96544.00;;;;5041444;28;20472;-83
2023/04/06 02:39:01;;;;;;;3.83;3.50;;;4.20;57.30;3.70;96550.00;;;;5027398;28;20471;-82
2023/04/06 02:41:32;;;;;;;4.03;3.43;;;4.20;57.30;3.60;96545.00;;;;5033480;28;20813;-82
2023/04/06 02:44:05;;;;;;;4.20;3.80;;;4.10;57.20;3.60;96544.00;;;;5030574;28;20476;-83
2023/04/06 02:46:36;;;;;;;4.00;3.60;;;4.10;57.10;3.50;96543.00;;;;5031233;28;20463;-83
2023/04/06 02:49:05;;;;;;;3.97;3.53;;;4.10;57.10;3.50;96539.00;;;;5043797;28;20471;-82
2023/04/06 02:51:35;;;;;;;4.03;3.70;;;4.00;57.10;3.40;96547.00;;;;5042056;28;20824;-82
2023/04/06 02:54:02;;;;;;;4.23;3.70;;;4.00;57.20;3.40;96545.00;;;;5043106;28;20432;-83
2023/04/06 02:56:30;;;;;;;4.03;3.60;;;3.90;57.10;3.40;96544.00;;;;5022409;28;20559;-82
2023/04/06 02:58:57;;;;;;;3.73;3.43;;;3.90;57.20;3.40;96534.00;;;;5009025;28;20458;-82
2023/04/06 03:01:25;;;;;;;3.73;3.37;;;3.90;57.20;3.30;96536.00;;;;5032750;28;20460;-82
2023/04/06 03:03:53;;;;;;;7.90;4.00;;;3.80;57.20;3.30;96542.00;;;;5040634;28;21424;-83
2023/04/06 03:06:23;;;;;;;5.27;3.50;;;3.80;57.30;3.30;96540.00;;;;5040308;28;20547;-81
2023/04/06 03:08:51;;;;;;;4.07;3.77;;;3.80;57.30;3.30;96537.00;;;;5034618;28;20479;-81
2023/04/06 03:11:22;;;;;;;4.80;3.90;;;3.70;57.30;3.20;96529.00;;;;5020253;28;20949;-81
2023/04/06 03:13:52;;;;;;;4.00;3.60;;;3.70;57.40;3.20;96534.00;;;;5037206;28;20452;-81
2023/04/06 03:16:21;;;;;;;4.50;4.03;;;3.70;57.40;3.20;96536.00;;;;5040080;28;20863;-82
2023/04/06 03:18:51;;;;;;;10.80;4.43;;;3.70;57.50;3.20;96541.00;;;;5016903;28;20516;-82
2023/04/06 03:21:22;;;;;;;4.40;4.00;;;3.70;57.60;3.10;96537.00;;;;5030217;28;20457;-82
2023/04/06 03:23:50;;;;;;;5.03;4.53;;;3.60;57.70;3.10;96538.00;;;;5056582;22;20492;-88
2023/04/06 03:26:18;;;;;;;4.20;3.80;;;3.60;57.70;3.10;96540.00;;;;5033384;28;20894;-88
2023/04/06 03:28:46;;;;;;;4.77;4.00;;;3.60;57.70;3.10;96537.00;;;;5034247;28;20526;-88
2023/04/06 03:31:14;;;;;;;4.40;4.00;;;3.60;57.70;3.00;96543.00;;;;5007798;28;20494;-86
2023/04/06 03:33:41;;;;;;;6.57;4.67;;;3.60;57.80;3.00;96542.00;;;;5016737;28;20923;-86
2023/04/06 03:36:09;;;;;;;5.97;4.40;;;3.50;57.70;3.00;96536.00;;;;5040224;28;20844;-85
2023/04/06 03:38:39;;;;;;;4.83;4.33;;;3.50;57.90;3.00;96535.00;;;;5040144;28;20440;-85
2023/04/06 03:41:06;;;;;;;4.60;4.20;;;3.50;58.00;3.00;96557.00;;;;5043390;28;20948;-85
2023/04/06 03:43:34;;;;;;;5.60;4.10;;;3.50;58.00;3.00;96547.00;;;;5020859;28;20484;-85
2023/04/06 03:46:01;;;;;;;4.67;4.27;;;3.50;58.20;3.00;96553.00;;;;5013662;28;20479;-85
2023/04/06 03:48:29;;;;;;;4.20;3.80;;;3.50;58.20;3.00;96558.00;;;;5014698;28;20875;-85
2023/04/06 03:50:56;;;;;;;4.77;4.30;;;3.50;58.20;3.00;96559.00;;;;5039374;28;20447;-85
2023/04/06 03:53:24;;;;;;;5.50;4.33;;;3.50;58.30;3.00;96559.00;;;;5010626;28;20476;-86
2023/04/06 03:55:53;;;;;;;3.90;3.60;;;3.50;58.30;3.00;96559.00;;;;5044746;28;20483;-85
2023/04/06 03:58:21;;;;;;;4.93;4.20;;;3.50;58.40;2.90;96564.00;;;;5041214;28;20856;-86
2023/04/06 04:00:48;;;;;;;4.37;3.97;;;3.50;58.50;3.00;96568.00;;;;5034787;28;20456;-86
2023/04/06 04:03:15;;;;;;;4.47;4.03;;;3.50;58.60;3.00;96560.00;;;;5039789;28;20463;-86
2023/04/06 04:05:44;;;;;;;4.83;4.33;;;3.50;58.60;2.90;96563.00;;;;5021011;28;21058;-86
2023/04/06 04:08:12;;;;;;;5.53;5.03;;;3.50;58.60;2.90;96553.00;;;;5040295;28;20452;-86
2023/04/06 04:10:39;;;;;;;5.57;5.07;;;3.40;58.50;2.90;96564.00;;;;5043164;28;20440;-86
2023/04/06 04:13:08;;;;;;;5.17;4.67;;;3.50;58.60;2.90;96564.00;;;;5006649;28;20471;-85
2023/04/06 04:15:36;;;;;;;4.67;4.27;;;3.40;58.50;2.90;96561.00;;;;5037129;28;20463;-86
2023/04/06 04:18:04;;;;;;;5.00;4.60;;;3.40;58.50;2.80;96560.00;;;;5051292;28;20452;-86
2023/04/06 04:20:32;;;;;;;4.87;4.37;;;3.40;58.70;2.80;96562.00;;;;5036761;28;20440;-86
2023/04/06 04:23:00;;;;;;;5.13;4.17;;;3.40;58.80;2.80;96560.00;;;;5034040;28;21062;-86
2023/04/06 04:25:27;;;;;;;4.33;3.93;;;3.40;58.80;2.80;96570.00;;;;5042606;28;20479;-86
2023/04/06 04:27:54;;;;;;;5.80;4.37;;;3.30;58.80;2.80;96560.00;;;;5036663;28;20532;-86
2023/04/06 04:30:24;;;;;;;5.57;4.30;;;3.30;59.00;2.80;96567.00;;;;5038961;28;20444;-85
2023/04/06 04:32:53;;;;;;;5.27;3.90;;;3.30;59.00;2.70;96566.00;;;;5044399;28;20471;-86
2023/04/06 04:35:21;;;;;;;4.27;3.90;;;3.30;59.00;2.70;96576.00;;;;5034296;28;20981;-86
2023/04/06 04:37:49;;;;;;;4.57;3.80;;;3.20;58.90;2.70;96573.00;;;;5030713;28;20444;-86
2023/04/06 04:40:17;;;;;;;4.40;4.00;;;3.30;59.00;2.70;96573.00;;;;5023406;28;20454;-86
2023/04/06 04:42:45;;;;;;;4.67;4.27;;;3.20;58.90;2.70;96581.00;;;;5031691;28;20567;-85
2023/04/06 04:45:12;;;;;;;4.60;4.20;;;3.20;59.00;2.60;96581.00;;;;5019181;28;20472;-86
2023/04/06 04:47:41;;;;;;;4.90;4.30;;;3.20;59.10;2.70;96573.00;;;;5021376;28;20480;-86
2023/04/06 04:50:10;;;;;;;4.73;4.17;;;3.20;59.30;2.60;96581.00;;;;5045531;28;20501;-86
2023/04/06 04:52:38;;;;;;;5.10;4.60;;;3.20;59.40;2.60;96580.00;;;;5035893;28;20521;-85
2023/04/06 04:55:07;;;;;;;4.37;3.93;;;3.20;59.30;2.60;96582.00;;;;5035667;28;21143;-86
2023/04/06 04:57:34;;;;;;;5.97;4.97;;;3.20;59.40;2.60;96574.00;;;;5017965;28;20506;-86
2023/04/06 05:00:02;;;;;;;5.40;4.00;;;3.10;59.30;2.60;96581.00;;;;5026958;28;20533;-86
2023/04/06 05:02:30;;;;;;;4.73;4.30;;;3.10;59.40;2.60;96582.00;;;;5047011;28;20956;-86
2023/04/06 05:04:59;;;;;;;4.97;4.47;;;3.10;59.60;2.60;96565.00;;;;5037269;28;20526;-86
2023/04/06 05:07:26;;;;;;;6.03;4.63;;;3.20;59.70;2.60;96572.00;;;;5033942;28;20443;-86
2023/04/06 05:09:54;;;;;;;6.37;4.00;;;3.10;59.60;2.60;96573.00;;;;5039020;28;20508;-85
2023/04/06 05:12:22;;;;;;;6.30;4.30;;;3.10;60.10;2.60;96587.00;;;;5027071;28;20496;-84
2023/04/06 05:14:49;;;;;;;5.80;4.33;;;3.10;59.50;2.70;96580.00;;;;5033374;28;20463;-84
2023/04/06 05:17:17;;;;;;;4.43;4.03;;;3.10;59.60;2.70;96583.00;;;;5027012;28;20440;-84
2023/04/06 05:19:45;;;;;;;8.37;4.67;;;3.20;59.70;2.80;96588.00;;;;5032499;28;20823;-85
2023/04/06 05:22:17;;;;;;;5.70;4.30;;;3.20;59.80;2.80;96586.00;;;;5039341;28;20484;-84
2023/04/06 05:24:45;;;;;;;5.97;4.50;;;3.20;59.90;2.80;96590.00;;;;5013083;28;20873;-84
2023/04/06 05:27:12;;;;;;;6.00;4.67;;;3.20;59.80;2.90;96594.00;;;;5034810;28;20448;-84
2023/04/06 05:29:40;;;;;;;5.23;4.77;;;3.20;59.90;2.90;96589.00;;;;5040668;28;20436;-84
2023/04/06 05:32:08;;;;;;;4.60;4.20;;;3.20;60.00;2.90;96583.00;;;;5042582;28;21316;-85
2023/04/06 05:34:36;;;;;;;5.57;4.03;;;3.20;60.00;2.90;96585.00;;;;5040015;28;20444;-84
2023/04/06 05:37:04;;;;;;;4.40;4.00;;;3.20;60.10;3.00;96583.00;;;;5023732;28;20459;-85
2023/04/06 05:39:34;;;;;;;5.73;4.03;;;3.30;60.30;3.00;96583.00;;;;5015885;28;20456;-85
2023/04/06 05:42:06;;;;;;;4.60;4.20;;;3.30;60.60;3.00;96582.00;;;;5011049;28;20453;-85
2023/04/06 05:44:34;;;;;;;5.67;4.33;;;3.40;60.80;3.10;96563.00;;;;5030985;28;20444;-85
2023/04/06 05:47:03;;;;;;;4.43;4.13;;;3.40;60.70;3.10;96576.00;;;;5029417;28;20448;-85
2023/04/06 05:49:31;;;;;;;4.53;4.13;;;3.40;60.90;3.20;96590.00;;;;5029363;28;20459;-85
2023/04/06 05:51:58;;;;;;;4.37;3.97;;;3.40;61.40;3.30;96591.00;;;;5006417;28;20452;-85
2023/04/06 05:54:28;;;;;;;4.53;3.90;;;3.50;61.10;3.30;96593.00;;;;5010611;28;20482;-86
2023/04/06 05:56:57;;;;;;;5.10;4.10;;;3.70;62.00;3.30;96594.00;;;;5014308;28;20460;-85
2023/04/06 05:59:25;;;;;;;4.50;4.10;;;3.60;61.20;3.40;96599.00;;;;5040847;28;20452;-85
2023/04/06 06:01:52;;;;;;;4.70;4.27;;;3.60;61.30;3.40;96590.00;;;;5006962;28;20532;-86
2023/04/06 06:04:19;;;;;;;4.37;3.97;;;3.70;61.40;3.50;96603.00;;;;5032861;28;20533;-86
2023/04/06 06:06:47;;;;;;;4.43;4.07;;;3.70;61.40;3.50;96604.00;;;;4999468;28;20471;-86
2023/04/06 06:09:15;;;;;;;4.13;3.73;;;3.80;61.40;3.60;96600.00;;;;5023527;28;20455;-85
2023/04/06 06:11:43;;;;;;;5.80;3.93;;;3.80;61.50;3.60;96611.00;;;;5022586;28;20467;-86
2023/04/06 06:14:11;;;;;;;4.57;4.17;;;3.80;61.40;3.70;96611.00;;;;5034450;28;20829;-86
2023/04/06 06:16:39;;;;;;;4.90;3.80;;;3.90;61.50;3.70;96614.00;;;;5053982;28;20836;-86
2023/04/06 06:19:07;;;;;;;4.43;4.03;;;3.90;61.50;3.80;96602.00;;;;5037395;28;21025;-86
2023/04/06 06:21:35;;;;;;;4.60;4.20;;;4.00;61.70;3.90;96609.00;;;;5037474;28;20513;-86
2023/04/06 06:24:05;;;;;;;4.70;4.13;;;4.00;61.70;3.90;96612.00;;;;5037425;28;20475;-86
2023/04/06 06:26:32;;;;;;;4.50;4.10;;;4.10;61.80;3.90;96609.00;;;;5048085;28;20526;-85
2023/04/06 06:29:00;;;;;;;4.43;4.03;;;4.10;61.70;4.00;96604.00;;;;5045896;28;20448;-86
2023/04/06 06:31:29;;;;;;;4.00;3.70;;;4.20;61.80;4.10;96605.00;;;;5041799;28;20435;-86
2023/04/06 06:33:58;;;;;;;4.47;3.60;;;4.30;61.80;4.10;96609.00;;;;5039669;28;20460;-86
2023/04/06 06:36:28;;;;;;;4.40;4.10;;;4.30;61.70;4.20;96611.00;;;;5022016;28;20451;-87
2023/04/06 06:38:55;;;;;;;4.40;4.10;;;4.40;61.70;4.30;96611.00;;;;5029600;28;20439;-87
2023/04/06 06:41:23;;;;;;;4.13;3.80;;;4.40;61.60;4.30;96612.00;;;;5045011;28;20866;-86
2023/04/06 06:43:50;;;;;;;5.20;3.87;;;4.50;61.50;4.40;96600.00;;;;5053580;28;20517;-85
2023/04/06 06:46:18;;;;;;;4.80;4.40;;;4.60;61.50;4.50;96616.00;;;;5045958;28;20479;-88
2023/04/06 06:48:47;;;;;;;5.33;3.90;;;4.60;61.20;4.50;96613.00;;;;5017846;28;20440;-87
2023/04/06 06:51:14;;;;;;;4.30;3.90;;;4.70;61.30;4.60;96621.00;;;;5041580;28;20925;-87
2023/04/06 06:53:42;;;;;;;4.87;4.33;;;4.70;61.20;4.70;96620.00;;;;5028793;28;20817;-87
2023/04/06 06:56:09;;;;;;;3.97;3.67;;;4.80;61.10;4.80;96607.00;;;;5046269;28;20443;-88
2023/04/06 06:58:36;;;;;;;4.00;3.63;;;4.90;61.20;4.80;96618.00;;;;5027248;28;20511;-88
2023/04/06 07:01:05;;;;;;;4.20;3.80;;;4.90;61.00;4.90;96619.00;;;;5018018;28;20859;-89
2023/04/06 07:03:32;;;;;;;4.10;3.67;;;5.00;61.00;5.00;96623.00;;;;5035414;28;21035;-89
2023/04/06 07:06:02;;;;;;;5.37;4.03;;;5.00;60.80;5.10;96626.00;;;;5002241;28;20597;-89
2023/04/06 07:08:29;;;;;;;5.30;4.20;;;5.10;60.60;5.10;96620.00;;;;5022897;28;20662;-88
2023/04/06 07:10:57;;;;;;;5.27;3.90;;;5.20;60.60;5.20;96635.00;;;;5030234;28;20193;-88
2023/04/06 07:13:27;;;;;;;5.47;4.10;;;5.30;60.70;5.30;96636.00;;;;5042814;28;20221;-88
2023/04/06 07:15:55;;;;;;;5.33;3.43;;;5.30;60.80;5.40;96638.00;;;;5017446;28;20209;-89
2023/04/06 07:18:24;;;;;;;6.00;4.00;;;5.40;60.70;5.50;96633.00;;;;5050333;28;20208;-87
2023/04/06 07:20:52;;;;;;;4.47;4.03;;;5.50;60.80;5.60;96622.00;;;;5019049;28;20267;-89
2023/04/06 07:23:21;;;;;;;5.00;4.60;;;5.60;60.60;5.80;96630.00;;;;5034728;28;20232;-87
2023/04/06 07:25:52;;;;;;;4.47;4.10;;;5.70;60.50;5.90;96634.00;;;;5017355;28;20271;-87
2023/04/06 07:28:20;;;;;;;4.57;4.17;;;5.90;60.40;6.10;96633.00;;;;5035754;28;20190;-88
2023/04/06 07:30:48;;;;;;;4.47;4.10;;;6.00;60.50;6.30;96626.00;;;;5010981;28;20280;-87
2023/04/06 07:33:16;;;;;;;4.20;3.90;;;6.10;60.50;6.50;96631.00;;;;5034684;28;20653;-88
2023/04/06 07:35:43;;;;;;;4.30;3.70;;;6.30;60.60;6.70;96642.00;;;;5026150;28;20264;-89
2023/04/06 07:38:16;;;;;;;4.57;3.70;;;6.40;60.50;6.90;96632.00;;;;5048604;28;20255;-86
2023/04/06 07:40:45;;;;;;;5.10;4.07;;;6.60;60.20;7.20;96655.00;;;;5034267;28;20739;-87
2023/04/06 07:43:13;;;;;;;4.93;4.30;;;6.80;60.00;7.40;96655.00;;;;5017539;28;20226;-87
2023/04/06 07:45:40;;;;;;;3.73;3.40;;;7.00;59.80;7.60;96653.00;;;;5052156;28;20228;-87
2023/04/06 07:48:08;;;;;;;5.60;4.10;;;7.20;59.80;7.80;96645.00;;;;5049716;28;20640;-88
2023/04/06 07:50:36;;;;;;;5.43;3.70;;;7.40;59.70;8.10;96653.00;;;;5020232;28;20198;-87
2023/04/06 07:53:03;;;;;;;4.03;3.67;;;7.60;59.50;8.30;96641.00;;;;5017239;28;20771;-87
2023/04/06 07:55:31;;;;;;;4.43;4.03;;;7.80;59.50;8.50;96659.00;;;;5034413;28;20201;-87
2023/04/06 07:58:00;;;;;;;5.03;3.67;;;8.00;59.50;8.70;96653.00;;;;5032188;28;20626;-87
2023/04/06 08:00:27;;;;;;;4.80;4.10;;;8.20;59.30;8.90;96639.00;;;;5029945;28;20197;-87
2023/04/06 08:02:55;;;;;;;5.10;3.83;;;8.40;59.30;9.10;96644.00;;;;5031816;28;20299;-87
2023/04/06 08:05:23;;;;;;;3.77;3.47;;;8.60;59.10;9.40;96650.00;;;;5031530;28;20338;-87
2023/04/06 08:07:51;;;;;;;5.10;3.97;;;8.80;59.00;9.60;96645.00;;;;5032839;28;20201;-91
2023/04/06 08:10:19;;;;;;;3.97;3.27;;;9.00;58.30;9.80;96659.00;;;;5014544;28;20210;-89
2023/04/06 08:12:46;;;;;;;3.80;3.50;;;9.20;58.00;10.00;96652.00;;;;5040192;28;20231;-87
2023/04/06 08:15:17;;;;;;;3.77;3.17;;;9.50;57.60;10.20;96649.00;;;;5016309;28;20197;-88
2023/04/06 08:17:45;;;;;;;4.20;3.37;;;9.70;56.90;10.50;96667.00;;;;5014780;28;20198;-87
2023/04/06 08:20:13;;;;;;;3.73;3.20;;;9.80;56.50;10.70;96659.00;;;;5030003;28;20201;-88
2023/04/06 08:22:40;;;;;;;3.77;3.40;;;10.00;56.40;10.90;96664.00;;;;5040978;28;20827;-87
2023/04/06 08:25:08;;;;;;;3.77;3.43;;;10.20;56.00;11.20;96667.00;;;;5032710;28;20779;-87
2023/04/06 08:27:36;;;;;;;3.97;3.60;;;10.50;55.80;11.40;96670.00;;;;5015131;28;20224;-88
2023/04/06 08:30:07;;;;;;;4.00;3.60;;;10.70;55.30;11.60;96670.00;;;;5023574;28;20601;-87
2023/04/06 08:32:36;;;;;;;3.80;3.50;;;10.90;54.70;11.80;96669.00;;;;5010187;28;20311;-88
2023/04/06 08:35:04;;;;;;;4.83;3.40;;;11.10;54.50;12.10;96678.00;;;;5027441;28;20255;-91
2023/04/06 08:37:32;;;;;;;3.03;2.73;;;11.30;54.40;12.30;96676.00;;;;5032264;28;20194;-88
2023/04/06 08:40:00;;;;;;;4.33;3.10;;;11.50;54.20;12.60;96678.00;;;;5014576;28;20241;-88
2023/04/06 08:42:33;;;;;;;3.30;3.00;;;11.70;53.90;12.80;96682.00;;;;5032084;28;20241;-88
2023/04/06 08:45:01;;;;;;;4.17;3.13;;;11.90;53.40;13.10;96686.00;;;;5032271;28;20194;-88
2023/04/06 08:47:29;;;;;;;4.13;3.30;;;12.10;52.50;13.20;96686.00;;;;5039775;28;20302;-88
2023/04/06 08:50:02;;;;;;;3.93;2.97;;;12.40;52.50;13.50;96681.00;;;;5040055;28;20201;-87
2023/04/06 08:52:33;;;;;;;3.20;3.00;;;12.60;52.50;13.70;96687.00;;;;5006650;28;20232;-88
2023/04/06 08:55:00;;;;;;;3.10;2.90;;;12.80;52.30;14.00;96696.00;;;;5014624;28;20193;-88
2023/04/06 08:57:28;;;;;;;3.57;3.27;;;13.00;52.40;14.20;96689.00;;;;5006104;28;20201;-87
2023/04/06 08:59:58;;;;;;;4.13;3.00;;;13.20;52.00;14.40;96694.00;;;;5043654;28;20278;-87
2023/04/06 09:02:25;;;;;;;3.70;3.13;;;13.40;51.40;14.60;96697.00;;;;5033043;28;20217;-88
2023/04/06 09:04:57;;;;;;;3.20;2.73;;;13.50;51.00;14.80;96697.00;;;;5030154;28;20207;-88
2023/04/06 09:07:26;;;;;;;3.63;3.33;;;13.70;49.90;14.90;96699.00;;;;4998360;28;20204;-88
2023/04/06 09:09:53;;;;;;;3.67;3.37;;;13.80;48.90;15.00;96697.00;;;;5032866;28;20747;-89
2023/04/06 09:12:27;;;;;;;5.23;3.47;;;14.00;48.60;15.10;96671.00;;;;5015224;28;20236;-87
2023/04/06 09:14:56;;;;;;;4.37;3.07;;;14.10;48.50;15.20;96683.00;;;;5043984;28;20204;-87
2023/04/06 09:17:27;;;;;;;3.30;2.57;;;14.10;48.60;15.30;96685.00;;;;5037562;28;20203;-87
2023/04/06 09:19:58;;;;;;;2.83;2.60;;;14.30;48.30;15.50;96671.00;;;;5032923;28;20205;-88
2023/04/06 09:22:28;;;;;;;3.30;2.93;;;14.50;48.70;15.70;96684.00;;;;4969809;28;1316479;-87
2023/04/06 09:24:57;;;;;;;2.63;2.43;;;14.60;48.70;15.90;96676.00;;;;5019944;28;20198;-87
2023/04/06 09:27:33;;;;;;;3.53;3.23;;;14.80;48.50;16.10;96679.00;;;;5049469;28;20201;-88
2023/04/06 09:30:09;;;;;;;3.43;3.20;;;15.00;47.80;16.40;96691.00;;;;5054522;28;20241;-88
2023/04/06 09:32:49;;;;;;;3.30;3.00;;;15.20;47.70;16.50;96683.00;;;;5039113;28;20209;-86
2023/04/06 09:38:17;;;;;;;3.70;3.40;;;15.60;47.30;17.00;96675.00;;;;5026565;28;20212;-87
2023/04/06 09:40:51;;;;;;;3.27;2.80;;;15.80;46.00;17.30;96683.00;;;;5033168;28;20201;-87
2023/04/06 09:43:28;;;;;;;5.20;3.40;;;16.00;46.60;17.70;96682.00;;;;5032734;28;20213;-86
2023/04/06 09:45:59;;;;;;;4.03;3.63;;;16.20;46.80;18.00;96688.00;;;;5029592;28;20457;-86
2023/04/06 09:48:29;;;;;;;3.20;3.00;;;16.60;44.50;18.40;96689.00;;;;5014916;28;20201;-86
2023/04/06 09:51:05;;;;;;;3.10;2.90;;;16.80;45.80;18.70;96686.00;;;;5041213;28;20267;-86
2023/04/06 09:53:40;;;;;;;3.53;2.83;;;17.10;45.90;19.10;96697.00;;;;5014003;28;20711;-87
2023/04/06 09:56:13;;;;;;;2.93;2.73;;;17.40;46.30;19.40;96700.00;;;;5018776;28;20720;-87
2023/04/06 09:58:47;;;;;;;3.27;3.00;;;17.70;46.10;19.60;96690.00;;;;5021099;28;20584;-86
2023/04/06 10:01:23;;;;;;;2.90;2.70;;;18.00;45.40;19.80;96696.00;;;;5042293;28;20207;-86
2023/04/06 10:04:17;;;;;;;3.00;2.80;;;18.20;45.20;20.00;96691.00;;;;5056618;28;20228;-87
2023/04/06 10:06:52;;;;;;;3.20;3.00;;;18.50;45.20;20.20;96697.00;;;;5047366;28;20301;-87
2023/04/06 10:09:25;;;;;;;3.00;2.80;;;18.80;45.10;20.30;96700.00;;;;5013884;28;20197;-86
2023/04/06 10:11:54;;;;;;;3.27;2.97;;;19.00;44.80;20.40;96694.00;;;;5032335;28;20248;-87
2023/04/06 10:14:21;;;;;;;3.50;3.20;;;19.30;44.20;20.50;96697.00;;;;5032243;28;20252;-87
2023/04/06 10:16:51;;;;;;;3.00;2.80;;;19.40;43.20;20.50;96691.00;;;;5041732;28;20198;-87
2023/04/06 10:19:27;;;;;;;3.40;2.90;;;19.60;42.00;20.40;96692.00;;;;5018027;28;20208;-87
2023/04/06 10:22:04;;;;;;;3.67;3.37;;;19.70;41.70;20.40;96691.00;;;;5035646;28;20189;-87
2023/04/06 10:24:31;;;;;;;3.73;3.43;;;19.80;41.80;20.50;96671.00;;;;5035943;28;20638;-88
2023/04/06 10:27:02;;;;;;;3.63;3.17;;;19.80;41.90;20.50;96685.00;;;;5036296;28;20598;-87
2023/04/06 10:29:38;;;;;;;3.27;2.97;;;19.90;42.00;20.50;96666.00;;;;5036209;28;20214;-86
2023/04/06 10:32:06;;;;;;;3.40;3.20;;;20.00;41.50;20.50;96670.00;;;;5021007;28;20268;-86
2023/04/06 10:34:36;;;;;;;3.27;3.07;;;20.20;40.90;20.50;96669.00;;;;5036709;28;20201;-86
2023/04/06 10:37:18;;;;;;;3.47;3.17;;;20.20;40.40;20.50;96671.00;;;;5017358;28;20182;-86
2023/04/06 10:39:57;;;;;;;3.63;3.33;;;20.20;39.70;20.60;96672.00;;;;5031484;28;20221;-87
2023/04/06 10:42:26;;;;;;;3.17;2.87;;;20.30;39.80;20.60;96663.00;;;;5025709;28;20226;-87
2023/04/06 10:44:54;;;;;;;3.00;2.80;;;20.40;40.10;20.60;96666.00;;;;5053589;28;20190;-88
2023/04/06 10:47:21;;;;;;;4.13;3.10;;;20.40;39.90;20.50;96655.00;;;;5024982;28;20226;-87
2023/04/06 10:49:49;;;;;;;3.00;2.80;;;20.40;39.40;20.40;96663.00;;;;5000719;28;20198;-86
2023/04/06 10:52:18;;;;;;;3.20;3.00;;;20.30;39.40;20.30;96660.00;;;;5038537;28;20209;-87
2023/04/06 10:54:48;;;;;;;3.77;3.10;;;20.30;37.90;20.00;96653.00;;;;5036056;28;20208;-87
2023/04/06 10:57:15;;;;;;;3.40;3.20;;;20.10;37.10;19.70;96653.00;;;;5036126;28;20209;-87
2023/04/06 10:59:45;;;;;;;3.37;3.13;;;19.80;37.00;19.40;96632.00;;;;5027538;28;20200;-87
2023/04/06 11:02:22;;;;;;;3.50;3.27;;;19.50;36.70;19.10;96647.00;;;;5042291;28;20259;-89
2023/04/06 11:05:00;;;;;;;3.53;3.33;;;19.30;36.70;18.80;96632.00;;;;5035431;28;20193;-90
2023/04/06 11:07:30;;;;;;;3.70;3.33;;;19.00;36.90;18.60;96635.00;;;;5043155;28;20651;-89
2023/04/06 11:09:57;;;;;;;3.83;3.53;;;18.80;37.20;18.30;96643.00;;;;5052087;28;20644;-89
2023/04/06 11:12:27;;;;;;;4.00;3.60;;;18.50;37.10;18.10;96634.00;;;;5035687;28;20235;-89
2023/04/06 11:15:01;;;;;;;4.00;3.70;;;18.30;37.00;17.80;96625.00;;;;5034967;28;20540;-88